Time;durP1;ratioP1;P1;durP2;ratioP2;P2;SDS_P1;SDS_P2;PMS_P1;PMS_P2;Temp;Humidity;BMP_temperature;BMP_pressure;BME280_temperature;BME280_humidity;BME280_pressure;Samples;Min_cycle;Max_cycle;Signal;HPM_P1;HPM_P2
2021/05/15 00:02:12;;;;;;;1.10;0.70;;;12.40;99.90;;;;;;5032501;28;20219;-72
2021/05/15 00:04:37;;;;;;;1.07;0.80;;;12.30;99.90;;;;;;5056343;28;20220;-72
2021/05/15 00:07:03;;;;;;;0.70;0.70;;;12.30;99.90;;;;;;5055395;28;20309;-72
2021/05/15 00:09:29;;;;;;;0.70;0.67;;;12.30;99.90;;;;;;5078626;28;20228;-72
2021/05/15 00:11:54;;;;;;;0.73;0.73;;;12.20;99.90;;;;;;5059376;28;20223;-71
2021/05/15 00:14:20;;;;;;;0.60;0.60;;;12.20;99.90;;;;;;5067829;28;20239;-71
2021/05/15 00:16:46;;;;;;;0.83;0.73;;;12.30;99.90;;;;;;5051466;28;20223;-71
2021/05/15 00:19:11;;;;;;;0.90;0.90;;;12.20;99.90;;;;;;5034429;28;20223;-72
2021/05/15 00:21:37;;;;;;;2.20;1.00;;;12.20;99.90;;;;;;5050300;28;20260;-72
2021/05/15 00:24:03;;;;;;;1.00;0.90;;;12.30;99.90;;;;;;5067306;28;20219;-72
2021/05/15 00:26:29;;;;;;;0.83;0.83;;;12.40;99.90;;;;;;5069465;28;20683;-72
2021/05/15 00:28:54;;;;;;;0.67;0.67;;;12.40;99.90;;;;;;5022086;28;20456;-72
2021/05/15 00:31:20;;;;;;;1.50;1.40;;;12.40;99.90;;;;;;5054933;28;20563;-71
2021/05/15 00:33:46;;;;;;;0.80;0.80;;;12.40;99.90;;;;;;5105430;28;20310;-71
2021/05/15 00:36:12;;;;;;;0.80;0.80;;;12.40;99.90;;;;;;5062061;28;20529;-71
2021/05/15 00:38:38;;;;;;;0.90;0.87;;;12.30;99.90;;;;;;5086397;28;20452;-72
2021/05/15 00:41:04;;;;;;;4.10;1.10;;;12.30;99.90;;;;;;5086969;28;20288;-73
2021/05/15 00:43:30;;;;;;;2.80;1.20;;;12.30;99.90;;;;;;5054212;28;20302;-71
2021/05/15 00:45:56;;;;;;;1.07;0.97;;;12.20;99.90;;;;;;5058878;28;20222;-71
2021/05/15 00:48:21;;;;;;;4.90;0.90;;;12.20;99.90;;;;;;5049514;28;20218;-71
2021/05/15 00:50:47;;;;;;;0.90;0.90;;;12.20;99.90;;;;;;5072812;28;20527;-71
2021/05/15 00:53:13;;;;;;;0.80;0.80;;;12.10;99.90;;;;;;5054393;28;20273;-70
2021/05/15 00:55:39;;;;;;;1.47;0.80;;;12.00;99.90;;;;;;5021677;28;20284;-71
2021/05/15 00:58:04;;;;;;;1.37;0.57;;;12.10;99.90;;;;;;5037578;28;20298;-72
2021/05/15 01:00:31;;;;;;;0.70;0.70;;;12.10;99.90;;;;;;5021325;28;20310;-71
2021/05/15 01:02:57;;;;;;;0.87;0.87;;;12.10;99.90;;;;;;5037410;28;20234;-71
2021/05/15 01:05:23;;;;;;;2.20;1.07;;;12.00;99.90;;;;;;5062307;28;20483;-71
2021/05/15 01:07:49;;;;;;;0.77;0.77;;;12.00;99.90;;;;;;5052736;28;20820;-72
2021/05/15 01:10:17;;;;;;;1.27;0.90;;;12.00;99.90;;;;;;5046464;28;20463;-70
2021/05/15 01:12:51;;;;;;;0.80;0.80;;;12.00;99.90;;;;;;5048221;28;20454;-71
2021/05/15 01:15:18;;;;;;;0.80;0.80;;;12.00;99.90;;;;;;5038395;28;20972;-72
2021/05/15 01:18:04;;;;;;;0.87;0.87;;;12.00;99.90;;;;;;5037724;28;20461;-71
2021/05/15 01:20:31;;;;;;;0.70;0.70;;;12.00;99.90;;;;;;5068857;28;20448;-70
2021/05/15 01:23:00;;;;;;;1.00;0.90;;;12.00;99.90;;;;;;5050462;28;20865;-71
2021/05/15 01:25:26;;;;;;;0.70;0.70;;;12.00;99.90;;;;;;5054541;28;20449;-72
2021/05/15 01:27:53;;;;;;;0.53;0.53;;;11.90;99.90;;;;;;5051288;28;20512;-71
2021/05/15 01:30:20;;;;;;;0.70;0.70;;;12.00;99.90;;;;;;5056204;28;20457;-72
2021/05/15 01:32:47;;;;;;;1.13;0.80;;;11.90;99.90;;;;;;5063557;28;20829;-72
2021/05/15 01:35:16;;;;;;;1.00;0.90;;;12.00;99.90;;;;;;5050286;28;20506;-71
2021/05/15 01:37:42;;;;;;;0.50;0.50;;;12.10;99.90;;;;;;5041877;28;20460;-71
2021/05/15 01:40:09;;;;;;;0.50;0.50;;;12.10;99.90;;;;;;5043805;28;20523;-72
2021/05/15 01:42:35;;;;;;;1.00;0.73;;;12.10;99.90;;;;;;5060784;28;20465;-72
2021/05/15 01:45:01;;;;;;;0.60;0.60;;;12.10;99.90;;;;;;5061375;28;20502;-71
2021/05/15 01:47:27;;;;;;;0.90;0.90;;;12.10;99.90;;;;;;5061118;28;20646;-71
2021/05/15 01:49:53;;;;;;;0.70;0.70;;;12.10;99.90;;;;;;5056804;28;20493;-72
2021/05/15 01:52:19;;;;;;;0.87;0.87;;;12.10;99.90;;;;;;5074742;28;20511;-72
2021/05/15 01:54:45;;;;;;;0.80;0.80;;;12.10;99.90;;;;;;5037263;28;20234;-71
2021/05/15 01:57:11;;;;;;;1.20;1.10;;;12.20;99.90;;;;;;5053523;28;20215;-71
2021/05/15 01:59:38;;;;;;;0.70;0.70;;;12.20;99.90;;;;;;5070494;28;21079;-72
2021/05/15 02:02:04;;;;;;;1.60;1.03;;;12.20;99.90;;;;;;5035849;28;20235;-71
2021/05/15 02:04:29;;;;;;;0.97;0.40;;;12.30;99.90;;;;;;5053399;28;20456;-71
2021/05/15 02:06:56;;;;;;;1.10;0.60;;;12.30;99.90;;;;;;5053262;28;20541;-71
2021/05/15 02:09:22;;;;;;;0.80;0.60;;;12.30;99.90;;;;;;5044174;28;20250;-69
2021/05/15 02:11:48;;;;;;;0.90;0.80;;;12.30;99.90;;;;;;5037147;28;20484;-73
2021/05/15 02:14:14;;;;;;;0.90;0.90;;;12.30;99.90;;;;;;5036682;28;20675;-72
2021/05/15 02:16:39;;;;;;;1.70;0.83;;;12.30;99.90;;;;;;5036739;28;20223;-72
2021/05/15 02:19:06;;;;;;;0.90;0.90;;;12.30;99.90;;;;;;5019951;28;20578;-71
2021/05/15 02:21:31;;;;;;;1.00;1.00;;;12.30;99.90;;;;;;5020403;28;20231;-71
2021/05/15 02:23:57;;;;;;;1.30;1.20;;;12.30;99.90;;;;;;5036330;28;20461;-72
2021/05/15 02:26:23;;;;;;;1.10;1.00;;;12.20;99.90;;;;;;5007305;28;20285;-72
2021/05/15 02:28:49;;;;;;;1.07;1.03;;;12.20;99.90;;;;;;5026986;28;20220;-72
2021/05/15 02:31:14;;;;;;;1.00;1.00;;;12.20;99.90;;;;;;5088166;28;20448;-72
2021/05/15 02:33:40;;;;;;;1.60;1.17;;;12.30;99.90;;;;;;5039813;28;20223;-72
2021/05/15 02:36:06;;;;;;;0.90;0.90;;;12.30;99.90;;;;;;5048854;28;20216;-71
2021/05/15 02:38:32;;;;;;;1.03;1.03;;;12.30;99.90;;;;;;5062124;28;20217;-72
2021/05/15 02:40:58;;;;;;;0.90;0.90;;;12.30;99.90;;;;;;5068905;28;20441;-72
2021/05/15 02:43:24;;;;;;;1.10;1.00;;;12.20;99.90;;;;;;5070802;28;20760;-72
2021/05/15 02:45:49;;;;;;;1.20;1.10;;;12.20;99.90;;;;;;5064728;28;20747;-72
2021/05/15 02:48:18;;;;;;;0.90;0.90;;;12.20;99.90;;;;;;5054267;28;20584;-71
2021/05/15 02:50:46;;;;;;;0.93;0.93;;;12.30;99.90;;;;;;5045938;28;20218;-72
2021/05/15 02:53:12;;;;;;;0.80;0.80;;;12.30;99.90;;;;;;5065877;28;20527;-72
2021/05/15 02:55:38;;;;;;;1.37;1.10;;;12.30;99.90;;;;;;5065128;28;20478;-71
2021/05/15 02:58:03;;;;;;;0.80;0.80;;;12.30;99.90;;;;;;5032766;28;20220;-72
2021/05/15 03:00:29;;;;;;;1.30;1.20;;;12.20;99.90;;;;;;5073810;28;20456;-69
2021/05/15 03:02:58;;;;;;;0.90;0.90;;;12.20;99.90;;;;;;5063465;28;20227;-72
2021/05/15 03:05:26;;;;;;;1.20;1.10;;;12.20;99.90;;;;;;5036683;28;20234;-71
2021/05/15 03:07:52;;;;;;;1.10;1.00;;;12.30;99.90;;;;;;5051933;28;20453;-71
2021/05/15 03:10:22;;;;;;;1.20;1.10;;;12.20;99.90;;;;;;5062731;28;20455;-71
2021/05/15 03:12:48;;;;;;;1.23;1.13;;;12.20;99.90;;;;;;5040172;28;20358;-73
2021/05/15 03:15:14;;;;;;;1.50;1.20;;;12.20;99.90;;;;;;5032893;28;20533;-72
2021/05/15 03:17:41;;;;;;;1.40;1.30;;;12.20;99.90;;;;;;5065995;28;20234;-71
2021/05/15 03:20:10;;;;;;;1.20;1.20;;;12.20;99.90;;;;;;5072931;28;20225;-72
2021/05/15 03:22:36;;;;;;;1.40;1.30;;;12.20;99.90;;;;;;5081947;28;20472;-72
2021/05/15 03:25:03;;;;;;;1.10;1.00;;;12.10;99.90;;;;;;5038966;28;20456;-72
2021/05/15 03:27:29;;;;;;;3.17;2.00;;;12.10;99.90;;;;;;5055960;28;20219;-71
2021/05/15 03:29:54;;;;;;;2.10;2.00;;;12.10;99.90;;;;;;5051656;28;20495;-73
2021/05/15 03:32:20;;;;;;;3.13;2.00;;;12.10;99.90;;;;;;5019243;28;20667;-71
2021/05/15 03:34:46;;;;;;;1.70;1.60;;;12.00;99.90;;;;;;5018992;28;20222;-71
2021/05/15 03:37:12;;;;;;;2.30;1.50;;;12.10;99.90;;;;;;5061597;28;20215;-72
2021/05/15 03:39:38;;;;;;;1.40;1.30;;;12.10;99.90;;;;;;5055287;28;20226;-71
2021/05/15 03:42:04;;;;;;;1.60;1.47;;;12.10;99.90;;;;;;5055200;28;21050;-72
2021/05/15 03:44:29;;;;;;;1.53;1.40;;;12.10;99.90;;;;;;5043513;28;20204;-72
2021/05/15 03:46:55;;;;;;;1.40;1.30;;;12.20;99.90;;;;;;5050951;28;20222;-72
2021/05/15 03:49:21;;;;;;;1.30;1.30;;;12.20;99.90;;;;;;5079101;28;20237;-71
2021/05/15 03:51:46;;;;;;;1.60;1.50;;;12.20;99.90;;;;;;5043289;28;20266;-72
2021/05/15 03:54:12;;;;;;;1.37;1.30;;;12.20;99.90;;;;;;5053109;28;20239;-72
2021/05/15 03:56:38;;;;;;;2.27;1.77;;;12.10;99.90;;;;;;5052196;28;20279;-72
2021/05/15 03:59:04;;;;;;;1.30;1.20;;;12.10;99.90;;;;;;5068245;28;20243;-72
2021/05/15 04:01:30;;;;;;;1.70;1.30;;;12.10;99.90;;;;;;5071240;28;20640;-71
2021/05/15 04:03:57;;;;;;;1.33;1.23;;;12.10;99.90;;;;;;5062615;28;20960;-72
2021/05/15 04:06:22;;;;;;;1.53;1.43;;;12.10;99.90;;;;;;5085715;28;20540;-72
2021/05/15 04:08:48;;;;;;;1.80;1.50;;;12.10;99.90;;;;;;5093471;28;20313;-70
2021/05/15 04:11:13;;;;;;;1.23;1.13;;;12.20;99.90;;;;;;5042586;28;20301;-71
2021/05/15 04:13:53;;;;;;;1.60;1.50;;;12.20;99.90;;;;;;5065717;28;20242;-71
2021/05/15 04:16:25;;;;;;;1.83;1.73;;;12.20;99.90;;;;;;5025352;28;20702;-72
2021/05/15 04:18:51;;;;;;;4.00;1.13;;;12.20;99.90;;;;;;5054292;28;20461;-71
2021/05/15 04:21:17;;;;;;;1.40;1.30;;;12.20;99.90;;;;;;5059479;28;20502;-72
2021/05/15 04:23:43;;;;;;;2.10;1.90;;;12.20;99.90;;;;;;5069636;28;20227;-72
2021/05/15 04:26:12;;;;;;;2.10;1.90;;;12.20;99.90;;;;;;5036264;28;20299;-72
2021/05/15 04:28:38;;;;;;;1.97;1.83;;;12.10;99.90;;;;;;5055417;28;20238;-72
2021/05/15 04:31:04;;;;;;;2.70;2.07;;;12.10;99.90;;;;;;5054811;28;20549;-71
2021/05/15 04:33:30;;;;;;;2.43;1.87;;;12.10;99.90;;;;;;5038790;28;20525;-71
2021/05/15 04:35:56;;;;;;;1.77;1.67;;;12.10;99.90;;;;;;5055132;28;20211;-72
2021/05/15 04:38:23;;;;;;;2.20;2.10;;;12.10;99.90;;;;;;5006318;28;20223;-71
2021/05/15 04:40:49;;;;;;;2.00;1.90;;;12.10;99.90;;;;;;5045294;28;20461;-71
2021/05/15 04:43:15;;;;;;;2.10;1.90;;;12.10;99.90;;;;;;5085077;28;20480;-72
2021/05/15 04:45:42;;;;;;;2.20;2.10;;;12.10;99.90;;;;;;5055262;28;20496;-71
2021/05/15 04:48:09;;;;;;;1.73;1.63;;;12.10;99.90;;;;;;5067244;28;20458;-71
2021/05/15 04:50:35;;;;;;;2.40;1.80;;;12.10;99.90;;;;;;5065008;28;20461;-71
2021/05/15 04:53:02;;;;;;;1.77;1.67;;;12.10;99.90;;;;;;5040013;28;20476;-72
2021/05/15 04:55:28;;;;;;;1.87;1.77;;;12.10;99.90;;;;;;5063256;28;20532;-71
2021/05/15 04:57:53;;;;;;;1.70;1.60;;;12.10;99.90;;;;;;5054646;28;20557;-72
2021/05/15 05:00:19;;;;;;;3.67;2.00;;;12.10;99.90;;;;;;5080053;28;20975;-71
2021/05/15 05:02:45;;;;;;;2.80;1.63;;;12.10;99.90;;;;;;5057883;28;20223;-72
2021/05/15 05:05:11;;;;;;;3.10;2.80;;;12.10;99.90;;;;;;5040055;28;20222;-72
2021/05/15 05:07:37;;;;;;;1.70;1.60;;;12.10;99.90;;;;;;5054748;28;20246;-72
2021/05/15 05:10:04;;;;;;;2.17;2.00;;;12.10;99.90;;;;;;5037683;28;20500;-72
2021/05/15 05:12:30;;;;;;;1.70;1.60;;;12.10;99.90;;;;;;5056104;28;20223;-71
2021/05/15 05:14:55;;;;;;;2.37;2.17;;;12.10;99.90;;;;;;5020867;28;20450;-71
2021/05/15 05:17:21;;;;;;;2.60;2.30;;;12.10;99.90;;;;;;5038258;28;20306;-72
2021/05/15 05:19:47;;;;;;;3.10;2.30;;;12.10;99.90;;;;;;5020997;28;20581;-71
2021/05/15 05:22:12;;;;;;;2.37;2.17;;;12.10;99.90;;;;;;5037233;28;20239;-72
2021/05/15 05:24:39;;;;;;;2.10;2.00;;;12.00;99.90;;;;;;5054525;28;20276;-71
2021/05/15 05:27:08;;;;;;;2.30;2.10;;;12.10;99.90;;;;;;5021502;28;20219;-71
2021/05/15 05:29:34;;;;;;;2.07;1.90;;;12.10;99.90;;;;;;5045587;28;20458;-69
2021/05/15 05:32:00;;;;;;;2.80;2.60;;;12.00;99.90;;;;;;5084803;28;20487;-72
2021/05/15 05:34:26;;;;;;;2.37;2.00;;;12.00;99.90;;;;;;5037755;28;20964;-72
2021/05/15 05:36:53;;;;;;;2.27;2.07;;;12.10;99.90;;;;;;5036289;28;20706;-71
2021/05/15 05:39:20;;;;;;;2.57;2.37;;;12.10;99.90;;;;;;5102403;28;20228;-71
2021/05/15 05:41:47;;;;;;;2.63;2.43;;;12.10;99.90;;;;;;5040503;28;20468;-72
2021/05/15 05:44:12;;;;;;;2.90;2.67;;;12.10;99.90;;;;;;5073919;28;20440;-69
2021/05/15 05:50:32;;;;;;;2.83;2.50;;;12.20;99.90;;;;;;5082764;28;20231;-72
2021/05/15 05:52:58;;;;;;;3.07;2.77;;;12.20;99.90;;;;;;5049346;28;20822;-72
2021/05/15 05:55:24;;;;;;;3.37;2.70;;;12.20;99.90;;;;;;5098868;28;20501;-71
2021/05/15 05:57:50;;;;;;;2.97;2.67;;;12.20;99.90;;;;;;5073528;28;20252;-72
2021/05/15 06:00:16;;;;;;;4.80;2.93;;;12.20;99.90;;;;;;5067070;28;20471;-71
2021/05/15 06:02:42;;;;;;;4.13;3.07;;;12.20;99.90;;;;;;5050490;28;20234;-72
2021/05/15 06:05:08;;;;;;;3.80;3.17;;;12.30;99.90;;;;;;5073425;28;21000;-71
2021/05/15 06:07:34;;;;;;;3.87;3.50;;;12.30;99.90;;;;;;5055737;28;20275;-71
2021/05/15 06:10:00;;;;;;;3.57;3.27;;;12.30;99.90;;;;;;5073744;28;20536;-71
2021/05/15 06:12:26;;;;;;;3.70;3.40;;;12.30;99.90;;;;;;5073374;28;20713;-71
2021/05/15 06:14:51;;;;;;;3.30;2.80;;;12.40;99.90;;;;;;5040000;28;20453;-72
2021/05/15 06:17:17;;;;;;;3.80;3.40;;;12.40;99.90;;;;;;5068395;28;20227;-73
2021/05/15 06:19:44;;;;;;;3.20;2.90;;;12.40;99.90;;;;;;5064748;28;20211;-72
2021/05/15 06:22:11;;;;;;;3.87;3.47;;;12.50;99.90;;;;;;5014662;28;20306;-70
2021/05/15 06:24:40;;;;;;;3.00;2.70;;;12.50;99.90;;;;;;5070941;28;20461;-72
2021/05/15 06:27:07;;;;;;;4.10;3.17;;;12.50;99.90;;;;;;5048520;28;21001;-72
2021/05/15 06:29:34;;;;;;;3.23;2.77;;;12.60;99.90;;;;;;5035793;28;20471;-71
2021/05/15 06:31:59;;;;;;;2.93;2.63;;;12.60;99.90;;;;;;5075799;28;20477;-72
2021/05/15 06:34:25;;;;;;;3.70;3.40;;;12.60;99.90;;;;;;5036596;28;20869;-72
2021/05/15 06:36:51;;;;;;;2.60;2.40;;;12.60;99.90;;;;;;5080202;28;20689;-71
2021/05/15 06:39:16;;;;;;;2.57;2.37;;;12.60;99.90;;;;;;5021038;28;20228;-72
2021/05/15 06:41:42;;;;;;;2.93;2.67;;;12.70;99.90;;;;;;5060154;28;20207;-72
2021/05/15 06:44:08;;;;;;;3.90;2.90;;;12.70;99.90;;;;;;5053484;28;20226;-72
2021/05/15 06:46:44;;;;;;;2.67;2.47;;;12.70;99.90;;;;;;5055887;28;20232;-72
2021/05/15 06:49:10;;;;;;;2.77;2.57;;;12.70;99.90;;;;;;5047336;28;20223;-72
2021/05/15 06:51:36;;;;;;;2.67;2.47;;;12.70;99.90;;;;;;5039375;28;20445;-72
2021/05/15 06:54:02;;;;;;;7.87;3.07;;;12.70;99.90;;;;;;5049986;28;20219;-71
2021/05/15 06:56:28;;;;;;;5.47;3.97;;;12.80;99.90;;;;;;5080567;28;20220;-72
2021/05/15 06:58:53;;;;;;;3.47;2.90;;;12.80;99.90;;;;;;5049954;28;20532;-72
2021/05/15 07:01:19;;;;;;;3.87;3.47;;;12.80;99.90;;;;;;5062102;28;20699;-71
2021/05/15 07:03:45;;;;;;;2.80;2.60;;;12.80;99.90;;;;;;5039053;28;20628;-72
2021/05/15 07:06:10;;;;;;;3.80;3.30;;;12.80;99.90;;;;;;5069293;28;20222;-72
2021/05/15 07:08:36;;;;;;;2.70;2.50;;;12.90;99.90;;;;;;5065740;28;20211;-72
2021/05/15 07:11:03;;;;;;;4.50;2.60;;;13.00;99.90;;;;;;5056736;28;20208;-72
2021/05/15 07:13:29;;;;;;;3.30;3.00;;;13.10;99.90;;;;;;5072279;28;20521;-72
2021/05/15 07:15:55;;;;;;;2.87;2.67;;;13.10;99.90;;;;;;5071986;28;20379;-70
2021/05/15 07:18:21;;;;;;;3.60;3.30;;;13.20;99.90;;;;;;5048802;28;20222;-72
2021/05/15 07:20:47;;;;;;;3.10;2.80;;;13.20;99.90;;;;;;5040974;28;20237;-72
2021/05/15 07:23:13;;;;;;;3.90;3.30;;;13.20;99.90;;;;;;5069780;28;20223;-72
2021/05/15 07:25:38;;;;;;;3.30;3.00;;;13.20;99.90;;;;;;5035780;28;20802;-71
2021/05/15 07:28:04;;;;;;;3.80;3.20;;;13.20;99.90;;;;;;5042617;28;20226;-72
2021/05/15 07:30:30;;;;;;;4.93;3.50;;;13.20;99.90;;;;;;5064225;28;20230;-72
2021/05/15 07:32:57;;;;;;;4.40;3.00;;;13.30;99.90;;;;;;5071466;28;20252;-72
2021/05/15 07:35:24;;;;;;;3.60;3.30;;;13.30;99.90;;;;;;5072362;28;20817;-72
2021/05/15 07:37:51;;;;;;;6.03;3.10;;;13.40;99.90;;;;;;5081574;28;20448;-72
2021/05/15 07:40:18;;;;;;;3.70;3.23;;;13.40;99.90;;;;;;5049404;28;20461;-71
2021/05/15 07:42:44;;;;;;;3.90;2.90;;;13.50;99.90;;;;;;5089493;28;20518;-72
2021/05/15 07:45:12;;;;;;;3.30;2.90;;;13.60;99.90;;;;;;5054479;28;20521;-71
2021/05/15 07:47:39;;;;;;;3.43;3.13;;;13.60;99.90;;;;;;5051241;28;20835;-71
2021/05/15 07:50:05;;;;;;;3.87;3.47;;;13.70;99.90;;;;;;5058245;28;20473;-73
2021/05/15 07:52:31;;;;;;;6.10;4.23;;;13.80;99.90;;;;;;5039840;28;20458;-72
2021/05/15 07:54:56;;;;;;;3.90;3.40;;;13.80;99.90;;;;;;5063325;28;20512;-72
2021/05/15 07:57:22;;;;;;;3.57;3.20;;;13.90;99.90;;;;;;5076040;28;20218;-71
2021/05/15 07:59:47;;;;;;;3.40;3.03;;;14.00;99.90;;;;;;5056685;28;20214;-72
2021/05/15 08:02:13;;;;;;;3.77;3.40;;;14.00;99.90;;;;;;5015996;28;20238;-72
2021/05/15 08:04:39;;;;;;;5.07;4.40;;;14.10;99.90;;;;;;5069311;28;20226;-72
2021/05/15 08:07:05;;;;;;;7.03;4.83;;;14.10;99.90;;;;;;5047588;28;20231;-72
2021/05/15 08:09:31;;;;;;;4.27;3.87;;;14.10;99.90;;;;;;5050199;28;20223;-70
2021/05/15 08:12:14;;;;;;;4.73;3.87;;;14.20;99.90;;;;;;5049724;28;20455;-72
2021/05/15 08:14:40;;;;;;;4.97;3.87;;;14.30;99.90;;;;;;5059153;28;20293;-70
2021/05/15 08:17:06;;;;;;;5.03;3.90;;;14.30;99.90;;;;;;5057752;28;20585;-72
2021/05/15 08:19:31;;;;;;;3.33;3.03;;;14.30;99.90;;;;;;5050339;28;20206;-72
2021/05/15 08:21:57;;;;;;;4.67;3.60;;;14.30;99.90;;;;;;5039681;28;20226;-72
2021/05/15 08:24:23;;;;;;;4.27;3.77;;;14.40;99.90;;;;;;5035490;28;20641;-72
2021/05/15 08:26:50;;;;;;;3.20;2.90;;;14.40;99.90;;;;;;5073041;28;20207;-72
2021/05/15 08:29:18;;;;;;;3.60;3.20;;;14.40;99.90;;;;;;5055186;28;20233;-71
2021/05/15 08:31:43;;;;;;;2.80;2.50;;;14.50;99.90;;;;;;5055336;28;20453;-72
2021/05/15 08:34:09;;;;;;;2.60;2.40;;;14.50;99.90;;;;;;5021659;28;20956;-72
2021/05/15 08:36:35;;;;;;;2.77;2.43;;;14.50;99.90;;;;;;5053920;28;20219;-71
2021/05/15 08:39:01;;;;;;;2.70;2.50;;;14.60;99.90;;;;;;5022486;28;20225;-69
2021/05/15 08:41:26;;;;;;;3.77;2.60;;;14.70;99.90;;;;;;5018322;28;20247;-71
2021/05/15 08:43:53;;;;;;;2.87;2.20;;;14.70;99.90;;;;;;5017377;28;20485;-72
2021/05/15 08:46:20;;;;;;;2.10;1.90;;;14.70;99.90;;;;;;5028243;28;20224;-71
2021/05/15 08:48:48;;;;;;;3.10;2.80;;;14.70;99.90;;;;;;5050666;28;20458;-70
2021/05/15 08:51:14;;;;;;;3.77;2.33;;;14.70;99.90;;;;;;5033969;28;21013;-71
2021/05/15 08:53:40;;;;;;;2.30;2.10;;;14.70;99.90;;;;;;5056000;28;20537;-71
2021/05/15 08:56:10;;;;;;;2.67;2.43;;;14.70;99.90;;;;;;5050131;28;20239;-72
2021/05/15 08:58:38;;;;;;;2.00;1.90;;;14.80;99.90;;;;;;5063309;28;20490;-70
2021/05/15 09:01:15;;;;;;;3.13;1.73;;;14.80;99.90;;;;;;5032136;28;20433;-71
2021/05/15 09:03:44;;;;;;;2.40;2.20;;;14.80;99.90;;;;;;5061978;28;20513;-72
2021/05/15 09:06:10;;;;;;;2.33;1.87;;;14.70;99.90;;;;;;5073482;28;20446;-71
2021/05/15 09:08:37;;;;;;;2.37;2.13;;;14.80;99.90;;;;;;5088579;28;21000;-71
2021/05/15 09:11:03;;;;;;;3.73;1.70;;;14.70;99.90;;;;;;5049303;28;20478;-71
2021/05/15 09:13:30;;;;;;;2.20;2.00;;;14.80;99.90;;;;;;5054810;28;20453;-71
2021/05/15 09:16:05;;;;;;;2.87;2.10;;;14.80;99.90;;;;;;5037845;28;20445;-72
2021/05/15 09:18:37;;;;;;;2.10;2.00;;;14.90;99.90;;;;;;5061954;28;20972;-72
2021/05/15 09:21:07;;;;;;;1.60;1.50;;;14.90;99.90;;;;;;5052652;28;20556;-72
2021/05/15 09:23:38;;;;;;;2.80;1.83;;;15.00;99.90;;;;;;5041379;28;20500;-70
2021/05/15 09:26:09;;;;;;;2.43;2.00;;;15.00;99.90;;;;;;5077214;28;20446;-71
2021/05/15 09:28:54;;;;;;;4.00;1.80;;;15.00;99.90;;;;;;5043068;28;20492;-71
2021/05/15 09:31:35;;;;;;;2.13;1.93;;;15.10;99.90;;;;;;5059989;28;20477;-70
2021/05/15 09:34:04;;;;;;;2.43;1.87;;;15.10;99.90;;;;;;5066957;28;20457;-71
2021/05/15 09:36:33;;;;;;;2.00;1.80;;;15.10;99.90;;;;;;5056444;28;21015;-71
2021/05/15 09:38:59;;;;;;;1.70;1.60;;;15.10;99.90;;;;;;5086520;28;20453;-72
2021/05/15 09:41:38;;;;;;;2.13;1.90;;;15.10;99.90;;;;;;5036179;28;20472;-70
2021/05/15 09:44:06;;;;;;;1.80;1.70;;;15.10;99.90;;;;;;5080867;28;20260;-71
2021/05/15 09:46:33;;;;;;;2.33;2.17;;;15.10;99.90;;;;;;5060874;28;20442;-72
2021/05/15 09:48:59;;;;;;;2.10;1.90;;;15.20;99.90;;;;;;5036059;28;20588;-71
2021/05/15 09:51:25;;;;;;;2.37;2.17;;;15.20;99.90;;;;;;5070698;28;20533;-71
2021/05/15 09:53:51;;;;;;;1.53;1.43;;;15.20;99.90;;;;;;5032628;28;20311;-71
2021/05/15 09:56:30;;;;;;;1.93;1.83;;;15.20;99.90;;;;;;5051567;28;20597;-71
2021/05/15 09:58:57;;;;;;;1.80;1.70;;;15.20;99.90;;;;;;5069437;28;20458;-72
2021/05/15 10:01:25;;;;;;;1.57;1.47;;;15.20;99.90;;;;;;5071431;28;20460;-71
2021/05/15 10:03:59;;;;;;;1.13;1.13;;;15.10;99.90;;;;;;5049010;28;20824;-72
2021/05/15 10:06:25;;;;;;;3.63;1.43;;;15.00;99.90;;;;;;5042132;28;20452;-72
2021/05/15 10:08:51;;;;;;;1.33;1.23;;;15.00;99.90;;;;;;5070093;28;20502;-72
2021/05/15 10:11:17;;;;;;;2.23;1.50;;;15.00;99.90;;;;;;5037845;28;20223;-71
2021/05/15 10:13:43;;;;;;;1.60;1.50;;;15.00;99.90;;;;;;5035788;28;20243;-71
2021/05/15 10:16:09;;;;;;;1.07;0.97;;;15.00;99.90;;;;;;5049553;28;20485;-72
2021/05/15 10:18:35;;;;;;;1.50;1.30;;;15.00;99.90;;;;;;5043424;28;20256;-71
2021/05/15 10:21:02;;;;;;;1.70;1.27;;;15.00;99.90;;;;;;5034143;28;20453;-71
2021/05/15 10:23:44;;;;;;;2.60;2.40;;;15.10;99.90;;;;;;5034761;28;20276;-71
2021/05/15 10:26:15;;;;;;;1.57;1.47;;;15.00;99.90;;;;;;5084402;28;20508;-72
2021/05/15 10:28:42;;;;;;;1.50;1.40;;;14.90;99.90;;;;;;5051073;28;20461;-71
2021/05/15 10:31:11;;;;;;;1.30;1.20;;;14.90;99.90;;;;;;5018457;28;20457;-72
2021/05/15 10:33:38;;;;;;;1.43;1.33;;;14.90;99.90;;;;;;5022908;28;20461;-71
2021/05/15 10:36:05;;;;;;;1.20;1.10;;;14.90;99.90;;;;;;5082068;28;20501;-72
2021/05/15 10:38:38;;;;;;;1.40;1.30;;;14.90;99.90;;;;;;5055993;28;20463;-71
2021/05/15 10:41:16;;;;;;;1.33;1.23;;;14.90;99.90;;;;;;5057848;28;20445;-72
2021/05/15 10:43:43;;;;;;;1.40;1.33;;;14.90;99.90;;;;;;5076924;28;20461;-72
2021/05/15 10:46:30;;;;;;;3.60;1.33;;;15.00;99.90;;;;;;5053393;28;20540;-71
2021/05/15 10:48:58;;;;;;;1.43;1.30;;;15.00;99.90;;;;;;5074949;28;20494;-72
2021/05/15 10:51:31;;;;;;;1.43;1.33;;;15.10;99.90;;;;;;5035331;28;20465;-71
2021/05/15 10:53:58;;;;;;;1.50;1.40;;;15.10;99.90;;;;;;5070033;28;20469;-72
2021/05/15 10:56:31;;;;;;;1.20;1.17;;;15.20;99.90;;;;;;5027430;28;20453;-72
2021/05/15 10:59:06;;;;;;;1.67;1.57;;;15.20;99.90;;;;;;5067942;28;21062;-72
2021/05/15 11:01:53;;;;;;;1.50;1.40;;;15.20;99.90;;;;;;5049148;28;20555;-71
2021/05/15 11:04:31;;;;;;;1.70;1.50;;;15.20;99.90;;;;;;5036662;28;21232;-72
2021/05/15 11:07:05;;;;;;;1.20;1.07;;;15.30;99.90;;;;;;5041826;28;20514;-72
2021/05/15 11:09:33;;;;;;;0.93;0.93;;;15.40;99.90;;;;;;5036200;28;20997;-71
2021/05/15 11:12:13;;;;;;;1.50;1.40;;;15.50;99.90;;;;;;5047250;28;20449;-72
2021/05/15 11:14:42;;;;;;;1.37;1.20;;;15.50;99.90;;;;;;5033347;28;20460;-71
2021/05/15 11:17:21;;;;;;;1.40;1.20;;;15.60;99.90;;;;;;5050886;28;20485;-72
2021/05/15 11:19:52;;;;;;;2.80;1.40;;;15.70;99.90;;;;;;5051622;28;20988;-72
2021/05/15 11:22:19;;;;;;;1.30;1.20;;;15.80;99.90;;;;;;5052217;28;20488;-71
2021/05/15 11:24:55;;;;;;;1.50;1.40;;;15.90;99.90;;;;;;5051547;28;20480;-72
2021/05/15 11:27:22;;;;;;;1.40;1.30;;;15.90;99.90;;;;;;5051192;28;20997;-71
2021/05/15 11:30:02;;;;;;;1.20;1.10;;;15.90;99.90;;;;;;5069221;28;20458;-71
2021/05/15 11:32:28;;;;;;;1.67;1.40;;;15.90;99.90;;;;;;5080086;28;20464;-72
2021/05/15 11:34:55;;;;;;;2.93;1.00;;;16.00;99.90;;;;;;5034536;28;20466;-71
2021/05/15 11:37:21;;;;;;;1.07;1.07;;;16.10;99.90;;;;;;5051803;28;20454;-72
2021/05/15 11:39:52;;;;;;;1.20;1.10;;;16.10;99.90;;;;;;5051409;28;20492;-72
2021/05/15 11:42:19;;;;;;;1.03;0.93;;;16.10;99.90;;;;;;5035371;28;20242;-72
2021/05/15 11:44:51;;;;;;;1.03;1.03;;;16.00;99.90;;;;;;5051739;28;21030;-72
2021/05/15 11:47:17;;;;;;;1.27;1.17;;;16.10;99.90;;;;;;5051057;28;20466;-71
2021/05/15 11:49:43;;;;;;;1.00;1.00;;;16.10;99.90;;;;;;4999669;28;20549;-72
2021/05/15 11:52:10;;;;;;;1.37;1.27;;;16.10;99.90;;;;;;5031543;28;20362;-72
2021/05/15 11:54:37;;;;;;;1.37;1.27;;;16.00;99.90;;;;;;5046693;28;20473;-72
2021/05/15 11:57:03;;;;;;;1.00;1.00;;;16.00;99.90;;;;;;5011662;28;20446;-72
2021/05/15 11:59:30;;;;;;;1.70;1.03;;;16.00;99.90;;;;;;5050834;28;20859;-72
2021/05/15 12:01:57;;;;;;;1.00;1.00;;;16.10;99.90;;;;;;5032952;28;20465;-71
2021/05/15 12:04:27;;;;;;;1.00;1.00;;;16.10;99.90;;;;;;5002268;28;20460;-71
2021/05/15 12:07:05;;;;;;;2.33;1.03;;;16.00;99.90;;;;;;5034048;28;21314;-71
2021/05/15 12:09:31;;;;;;;0.80;0.80;;;15.90;99.90;;;;;;5035019;28;20464;-71
2021/05/15 12:12:06;;;;;;;1.07;1.00;;;16.00;99.90;;;;;;5033932;28;20464;-71
2021/05/15 12:14:32;;;;;;;0.93;0.93;;;15.90;99.90;;;;;;5069274;28;20456;-71
2021/05/15 12:17:09;;;;;;;0.83;0.83;;;16.00;99.90;;;;;;5041254;28;20528;-72
2021/05/15 12:20:10;;;;;;;1.20;1.03;;;16.00;99.90;;;;;;5026639;28;20510;-71
2021/05/15 12:22:36;;;;;;;1.33;1.23;;;15.90;99.90;;;;;;5072326;28;20451;-72
2021/05/15 12:25:10;;;;;;;0.90;0.90;;;15.90;99.90;;;;;;5062118;28;20471;-72
2021/05/15 12:27:36;;;;;;;0.80;0.80;;;15.90;99.90;;;;;;5039812;28;20237;-71
2021/05/15 12:30:06;;;;;;;3.93;0.73;;;15.90;99.90;;;;;;5037265;28;20452;-72
2021/05/15 12:32:33;;;;;;;2.20;0.90;;;15.80;99.90;;;;;;5048120;28;20499;-72
2021/05/15 12:35:04;;;;;;;0.83;0.83;;;15.90;99.90;;;;;;5053821;28;20803;-71
2021/05/15 12:37:38;;;;;;;0.80;0.80;;;15.90;99.90;;;;;;5036032;28;20512;-71
2021/05/15 12:40:09;;;;;;;2.87;1.77;;;15.90;99.90;;;;;;5053654;28;20525;-72
2021/05/15 12:42:35;;;;;;;0.90;0.80;;;15.90;99.90;;;;;;5058463;28;20471;-69
2021/05/15 12:45:12;;;;;;;0.90;0.80;;;15.90;99.90;;;;;;5049530;28;20448;-71
2021/05/15 12:47:38;;;;;;;0.77;0.70;;;15.80;99.90;;;;;;5042566;28;20222;-70
2021/05/15 12:50:26;;;;;;;0.70;0.70;;;15.90;99.90;;;;;;5053341;28;20538;-71
2021/05/15 12:53:05;;;;;;;2.10;1.17;;;15.90;99.90;;;;;;5038958;28;20237;-71
2021/05/15 12:55:31;;;;;;;1.30;1.20;;;15.90;99.90;;;;;;5029607;28;20857;-71